sensor_id;sensor_type;location;lat;lon;timestamp;temperature;humidity
38265;DHT22;24062;47.480;8.768;2023-06-22T00:00:48;29.40;55.20
38265;DHT22;24062;47.480;8.768;2023-06-22T00:03:15;29.40;55.30
38265;DHT22;24062;47.480;8.768;2023-06-22T00:05:42;29.40;55.30
38265;DHT22;24062;47.480;8.768;2023-06-22T00:08:09;29.30;55.20
38265;DHT22;24062;47.480;8.768;2023-06-22T00:10:37;29.30;55.20
38265;DHT22;24062;47.480;8.768;2023-06-22T00:13:05;29.30;55.30
38265;DHT22;24062;47.480;8.768;2023-06-22T00:15:32;29.30;55.30
38265;DHT22;24062;47.480;8.768;2023-06-22T00:17:59;29.30;55.40
38265;DHT22;24062;47.480;8.768;2023-06-22T00:20:26;29.30;55.40
38265;DHT22;24062;47.480;8.768;2023-06-22T00:22:55;29.20;55.30
38265;DHT22;24062;47.480;8.768;2023-06-22T00:25:23;29.20;55.30
38265;DHT22;24062;47.480;8.768;2023-06-22T00:27:51;29.20;55.30
38265;DHT22;24062;47.480;8.768;2023-06-22T00:30:19;29.20;55.40
38265;DHT22;24062;47.480;8.768;2023-06-22T00:32:46;29.20;55.40
38265;DHT22;24062;47.480;8.768;2023-06-22T00:35:13;29.20;55.40
38265;DHT22;24062;47.480;8.768;2023-06-22T00:37:40;29.20;55.50
38265;DHT22;24062;47.480;8.768;2023-06-22T00:40:08;29.20;55.40
38265;DHT22;24062;47.480;8.768;2023-06-22T00:42:37;29.10;55.50
38265;DHT22;24062;47.480;8.768;2023-06-22T00:45:07;29.10;55.50
38265;DHT22;24062;47.480;8.768;2023-06-22T00:47:35;29.00;55.50
38265;DHT22;24062;47.480;8.768;2023-06-22T00:50:03;29.00;55.50
38265;DHT22;24062;47.480;8.768;2023-06-22T00:52:33;29.00;55.60
38265;DHT22;24062;47.480;8.768;2023-06-22T00:55:02;29.00;55.60
38265;DHT22;24062;47.480;8.768;2023-06-22T00:57:29;29.00;55.50
38265;DHT22;24062;47.480;8.768;2023-06-22T00:59:57;29.00;55.50
38265;DHT22;24062;47.480;8.768;2023-06-22T01:02:25;29.00;55.60
38265;DHT22;24062;47.480;8.768;2023-06-22T01:04:52;28.90;55.60
38265;DHT22;24062;47.480;8.768;2023-06-22T01:07:28;28.90;55.60
38265;DHT22;24062;47.480;8.768;2023-06-22T01:10:01;28.90;55.60
38265;DHT22;24062;47.480;8.768;2023-06-22T01:12:32;28.90;55.70
38265;DHT22;24062;47.480;8.768;2023-06-22T01:15:07;28.90;55.60
38265;DHT22;24062;47.480;8.768;2023-06-22T01:17:40;28.90;55.60
38265;DHT22;24062;47.480;8.768;2023-06-22T01:20:09;28.90;55.60
38265;DHT22;24062;47.480;8.768;2023-06-22T01:22:46;28.90;55.60
38265;DHT22;24062;47.480;8.768;2023-06-22T01:25:20;28.90;55.70
38265;DHT22;24062;47.480;8.768;2023-06-22T01:27:58;28.80;55.70
38265;DHT22;24062;47.480;8.768;2023-06-22T01:30:32;28.80;55.80
38265;DHT22;24062;47.480;8.768;2023-06-22T01:33:01;28.80;55.90
38265;DHT22;24062;47.480;8.768;2023-06-22T01:35:29;28.80;55.90
38265;DHT22;24062;47.480;8.768;2023-06-22T01:37:57;28.90;55.80
38265;DHT22;24062;47.480;8.768;2023-06-22T01:40:24;28.90;55.70
38265;DHT22;24062;47.480;8.768;2023-06-22T01:42:52;28.80;55.70
38265;DHT22;24062;47.480;8.768;2023-06-22T01:45:20;28.80;55.80
38265;DHT22;24062;47.480;8.768;2023-06-22T01:47:49;28.80;55.70
38265;DHT22;24062;47.480;8.768;2023-06-22T01:50:17;28.80;55.70
38265;DHT22;24062;47.480;8.768;2023-06-22T01:52:44;28.80;55.70
38265;DHT22;24062;47.480;8.768;2023-06-22T01:55:11;28.80;55.70
38265;DHT22;24062;47.480;8.768;2023-06-22T01:57:38;28.80;55.80
38265;DHT22;24062;47.480;8.768;2023-06-22T02:00:11;28.70;55.70
38265;DHT22;24062;47.480;8.768;2023-06-22T02:02:43;28.80;55.80
38265;DHT22;24062;47.480;8.768;2023-06-22T02:05:15;28.70;55.70
38265;DHT22;24062;47.480;8.768;2023-06-22T02:07:47;28.60;55.90
38265;DHT22;24062;47.480;8.768;2023-06-22T02:10:17;28.60;55.90
38265;DHT22;24062;47.480;8.768;2023-06-22T02:12:46;28.70;55.90
38265;DHT22;24062;47.480;8.768;2023-06-22T02:15:15;28.60;55.90
38265;DHT22;24062;47.480;8.768;2023-06-22T02:17:43;28.70;55.90
38265;DHT22;24062;47.480;8.768;2023-06-22T02:20:13;28.70;55.90
38265;DHT22;24062;47.480;8.768;2023-06-22T02:22:41;28.70;55.80
38265;DHT22;24062;47.480;8.768;2023-06-22T02:25:08;28.70;55.90
38265;DHT22;24062;47.480;8.768;2023-06-22T02:27:35;28.60;55.90
38265;DHT22;24062;47.480;8.768;2023-06-22T02:30:07;28.60;56.00
38265;DHT22;24062;47.480;8.768;2023-06-22T02:32:34;28.60;56.10
38265;DHT22;24062;47.480;8.768;2023-06-22T02:35:01;28.60;55.90
38265;DHT22;24062;47.480;8.768;2023-06-22T02:37:31;28.50;56.00
38265;DHT22;24062;47.480;8.768;2023-06-22T02:39:58;28.50;56.10
38265;DHT22;24062;47.480;8.768;2023-06-22T02:42:25;28.50;56.00
38265;DHT22;24062;47.480;8.768;2023-06-22T02:44:51;28.50;55.90
38265;DHT22;24062;47.480;8.768;2023-06-22T02:47:18;28.50;56.00
38265;DHT22;24062;47.480;8.768;2023-06-22T02:49:45;28.50;55.90
38265;DHT22;24062;47.480;8.768;2023-06-22T02:52:12;28.50;56.00
38265;DHT22;24062;47.480;8.768;2023-06-22T02:54:41;28.40;56.10
38265;DHT22;24062;47.480;8.768;2023-06-22T02:57:07;28.50;56.10
38265;DHT22;24062;47.480;8.768;2023-06-22T02:59:38;28.50;56.20
38265;DHT22;24062;47.480;8.768;2023-06-22T03:02:06;28.40;56.10
38265;DHT22;24062;47.480;8.768;2023-06-22T03:04:33;28.40;56.10
38265;DHT22;24062;47.480;8.768;2023-06-22T03:07:00;28.40;56.10
38265;DHT22;24062;47.480;8.768;2023-06-22T03:09:28;28.40;56.10
38265;DHT22;24062;47.480;8.768;2023-06-22T03:11:56;28.50;56.00
38265;DHT22;24062;47.480;8.768;2023-06-22T03:14:23;28.50;56.00
38265;DHT22;24062;47.480;8.768;2023-06-22T03:16:50;28.40;56.00
38265;DHT22;24062;47.480;8.768;2023-06-22T03:19:17;28.40;56.00
38265;DHT22;24062;47.480;8.768;2023-06-22T03:21:45;28.30;56.10
38265;DHT22;24062;47.480;8.768;2023-06-22T03:24:12;28.40;56.20
38265;DHT22;24062;47.480;8.768;2023-06-22T03:26:38;28.30;56.10
38265;DHT22;24062;47.480;8.768;2023-06-22T03:29:07;28.30;56.80
38265;DHT22;24062;47.480;8.768;2023-06-22T03:31:34;28.30;56.10
38265;DHT22;24062;47.480;8.768;2023-06-22T03:34:01;28.30;56.20
38265;DHT22;24062;47.480;8.768;2023-06-22T03:36:27;28.30;56.30
38265;DHT22;24062;47.480;8.768;2023-06-22T03:38:54;28.30;56.20
38265;DHT22;24062;47.480;8.768;2023-06-22T03:41:21;28.30;56.20
38265;DHT22;24062;47.480;8.768;2023-06-22T03:43:48;28.30;56.70
38265;DHT22;24062;47.480;8.768;2023-06-22T03:46:17;28.30;56.20
38265;DHT22;24062;47.480;8.768;2023-06-22T03:48:45;28.30;56.10
38265;DHT22;24062;47.480;8.768;2023-06-22T03:51:12;28.30;56.20
38265;DHT22;24062;47.480;8.768;2023-06-22T03:53:39;28.30;56.20
38265;DHT22;24062;47.480;8.768;2023-06-22T03:56:06;28.30;56.20
38265;DHT22;24062;47.480;8.768;2023-06-22T03:58:33;28.20;56.20
38265;DHT22;24062;47.480;8.768;2023-06-22T04:01:01;28.20;56.20
38265;DHT22;24062;47.480;8.768;2023-06-22T04:03:29;28.20;56.20
38265;DHT22;24062;47.480;8.768;2023-06-22T04:05:56;28.20;56.20
38265;DHT22;24062;47.480;8.768;2023-06-22T04:08:23;28.30;56.30
38265;DHT22;24062;47.480;8.768;2023-06-22T04:10:49;28.30;56.20
38265;DHT22;24062;47.480;8.768;2023-06-22T04:13:16;28.20;56.10
38265;DHT22;24062;47.480;8.768;2023-06-22T04:15:43;28.20;56.10
38265;DHT22;24062;47.480;8.768;2023-06-22T04:18:10;28.20;56.20
38265;DHT22;24062;47.480;8.768;2023-06-22T04:20:38;28.20;56.20
38265;DHT22;24062;47.480;8.768;2023-06-22T04:23:06;28.20;56.20
38265;DHT22;24062;47.480;8.768;2023-06-22T04:25:33;28.20;56.20
38265;DHT22;24062;47.480;8.768;2023-06-22T04:28:00;28.30;56.20
38265;DHT22;24062;47.480;8.768;2023-06-22T04:30:28;28.30;56.20
38265;DHT22;24062;47.480;8.768;2023-06-22T04:32:57;28.20;56.20
38265;DHT22;24062;47.480;8.768;2023-06-22T04:35:24;28.30;56.20
38265;DHT22;24062;47.480;8.768;2023-06-22T04:37:53;28.20;56.10
38265;DHT22;24062;47.480;8.768;2023-06-22T04:40:22;28.30;56.70
38265;DHT22;24062;47.480;8.768;2023-06-22T04:42:48;28.30;56.10
38265;DHT22;24062;47.480;8.768;2023-06-22T04:45:19;28.30;56.00
38265;DHT22;24062;47.480;8.768;2023-06-22T04:47:46;28.40;55.90
38265;DHT22;24062;47.480;8.768;2023-06-22T04:50:13;28.40;55.90
38265;DHT22;24062;47.480;8.768;2023-06-22T04:52:40;28.40;56.00
38265;DHT22;24062;47.480;8.768;2023-06-22T04:55:09;28.40;55.90
38265;DHT22;24062;47.480;8.768;2023-06-22T04:57:36;28.30;55.80
38265;DHT22;24062;47.480;8.768;2023-06-22T05:00:06;28.40;55.90
38265;DHT22;24062;47.480;8.768;2023-06-22T05:02:43;28.30;55.90
38265;DHT22;24062;47.480;8.768;2023-06-22T05:05:10;28.30;55.90
38265;DHT22;24062;47.480;8.768;2023-06-22T05:07:39;28.30;55.90
38265;DHT22;24062;47.480;8.768;2023-06-22T05:10:10;28.30;55.90
38265;DHT22;24062;47.480;8.768;2023-06-22T05:12:38;28.30;55.90
38265;DHT22;24062;47.480;8.768;2023-06-22T05:15:06;28.30;55.90
38265;DHT22;24062;47.480;8.768;2023-06-22T05:17:33;28.30;55.90
38265;DHT22;24062;47.480;8.768;2023-06-22T05:20:00;28.30;55.90
38265;DHT22;24062;47.480;8.768;2023-06-22T05:22:28;28.40;55.90
38265;DHT22;24062;47.480;8.768;2023-06-22T05:24:55;28.40;56.30
38265;DHT22;24062;47.480;8.768;2023-06-22T05:27:23;28.40;56.30
38265;DHT22;24062;47.480;8.768;2023-06-22T05:29:50;28.30;56.30
38265;DHT22;24062;47.480;8.768;2023-06-22T05:32:17;28.30;56.50
38265;DHT22;24062;47.480;8.768;2023-06-22T05:34:44;28.40;56.50
38265;DHT22;24062;47.480;8.768;2023-06-22T05:37:11;28.40;56.60
38265;DHT22;24062;47.480;8.768;2023-06-22T05:39:38;28.30;56.50
38265;DHT22;24062;47.480;8.768;2023-06-22T05:42:05;28.40;56.60
38265;DHT22;24062;47.480;8.768;2023-06-22T05:44:34;28.40;57.10
38265;DHT22;24062;47.480;8.768;2023-06-22T05:47:03;28.40;57.00
38265;DHT22;24062;47.480;8.768;2023-06-22T05:49:30;28.50;57.20
38265;DHT22;24062;47.480;8.768;2023-06-22T05:51:58;28.50;57.10
38265;DHT22;24062;47.480;8.768;2023-06-22T05:54:26;28.50;57.30
38265;DHT22;24062;47.480;8.768;2023-06-22T05:56:54;28.50;57.40
38265;DHT22;24062;47.480;8.768;2023-06-22T05:59:21;28.50;57.40
38265;DHT22;24062;47.480;8.768;2023-06-22T06:01:49;28.50;57.60
38265;DHT22;24062;47.480;8.768;2023-06-22T06:04:17;28.60;57.70
38265;DHT22;24062;47.480;8.768;2023-06-22T06:06:44;28.60;58.50
38265;DHT22;24062;47.480;8.768;2023-06-22T06:09:12;28.60;58.40
38265;DHT22;24062;47.480;8.768;2023-06-22T06:11:39;28.60;58.20
38265;DHT22;24062;47.480;8.768;2023-06-22T06:14:06;28.60;58.20
38265;DHT22;24062;47.480;8.768;2023-06-22T06:16:33;28.60;58.20
38265;DHT22;24062;47.480;8.768;2023-06-22T06:19:02;28.70;58.30
38265;DHT22;24062;47.480;8.768;2023-06-22T06:21:29;28.70;58.00
38265;DHT22;24062;47.480;8.768;2023-06-22T06:23:56;28.70;57.90
38265;DHT22;24062;47.480;8.768;2023-06-22T06:26:23;28.70;57.90
38265;DHT22;24062;47.480;8.768;2023-06-22T06:28:53;28.80;57.90
38265;DHT22;24062;47.480;8.768;2023-06-22T06:31:21;28.80;57.80
38265;DHT22;24062;47.480;8.768;2023-06-22T06:33:48;28.80;58.00
38265;DHT22;24062;47.480;8.768;2023-06-22T06:36:17;28.80;57.90
38265;DHT22;24062;47.480;8.768;2023-06-22T06:38:44;28.90;58.10
38265;DHT22;24062;47.480;8.768;2023-06-22T06:41:12;28.90;57.90
38265;DHT22;24062;47.480;8.768;2023-06-22T06:43:39;28.90;58.00
38265;DHT22;24062;47.480;8.768;2023-06-22T06:46:08;28.90;58.00
38265;DHT22;24062;47.480;8.768;2023-06-22T06:48:35;29.00;57.90
38265;DHT22;24062;47.480;8.768;2023-06-22T06:51:02;29.00;58.00
38265;DHT22;24062;47.480;8.768;2023-06-22T06:53:30;29.00;58.10
38265;DHT22;24062;47.480;8.768;2023-06-22T06:55:57;29.10;58.00
38265;DHT22;24062;47.480;8.768;2023-06-22T06:58:24;29.20;57.90
38265;DHT22;24062;47.480;8.768;2023-06-22T07:00:51;29.20;58.60
38265;DHT22;24062;47.480;8.768;2023-06-22T07:03:18;29.20;58.00
38265;DHT22;24062;47.480;8.768;2023-06-22T07:05:45;29.30;58.00
38265;DHT22;24062;47.480;8.768;2023-06-22T07:08:12;29.30;57.90
38265;DHT22;24062;47.480;8.768;2023-06-22T07:10:40;29.40;58.00
38265;DHT22;24062;47.480;8.768;2023-06-22T07:13:07;29.40;57.80
38265;DHT22;24062;47.480;8.768;2023-06-22T07:15:34;29.50;57.70
38265;DHT22;24062;47.480;8.768;2023-06-22T07:18:01;29.50;57.50
38265;DHT22;24062;47.480;8.768;2023-06-22T07:20:27;29.60;57.60
38265;DHT22;24062;47.480;8.768;2023-06-22T07:22:54;29.70;57.50
38265;DHT22;24062;47.480;8.768;2023-06-22T07:25:21;29.80;57.20
38265;DHT22;24062;47.480;8.768;2023-06-22T07:28:00;29.90;57.50
38265;DHT22;24062;47.480;8.768;2023-06-22T07:30:28;29.90;57.40
38265;DHT22;24062;47.480;8.768;2023-06-22T07:32:55;29.80;57.40
38265;DHT22;24062;47.480;8.768;2023-06-22T07:35:22;29.80;57.50
38265;DHT22;24062;47.480;8.768;2023-06-22T07:37:49;29.80;57.60
38265;DHT22;24062;47.480;8.768;2023-06-22T07:40:16;29.80;57.70
38265;DHT22;24062;47.480;8.768;2023-06-22T07:42:43;29.80;57.70
38265;DHT22;24062;47.480;8.768;2023-06-22T07:45:12;29.70;57.70
38265;DHT22;24062;47.480;8.768;2023-06-22T07:47:39;29.70;58.00
38265;DHT22;24062;47.480;8.768;2023-06-22T07:50:06;29.60;58.10
38265;DHT22;24062;47.480;8.768;2023-06-22T07:52:33;29.60;58.10
38265;DHT22;24062;47.480;8.768;2023-06-22T07:55:00;29.50;58.50
38265;DHT22;24062;47.480;8.768;2023-06-22T07:57:28;29.40;58.40
38265;DHT22;24062;47.480;8.768;2023-06-22T07:59:59;29.30;58.70
38265;DHT22;24062;47.480;8.768;2023-06-22T08:02:27;29.30;58.60
38265;DHT22;24062;47.480;8.768;2023-06-22T08:04:54;29.50;58.70
38265;DHT22;24062;47.480;8.768;2023-06-22T08:07:21;29.50;58.40
38265;DHT22;24062;47.480;8.768;2023-06-22T08:09:48;29.70;58.30
38265;DHT22;24062;47.480;8.768;2023-06-22T08:12:15;29.80;58.00
38265;DHT22;24062;47.480;8.768;2023-06-22T08:14:43;29.80;57.90
38265;DHT22;24062;47.480;8.768;2023-06-22T08:17:11;30.00;57.90
38265;DHT22;24062;47.480;8.768;2023-06-22T08:19:40;30.00;57.80
38265;DHT22;24062;47.480;8.768;2023-06-22T08:22:07;30.00;57.60
38265;DHT22;24062;47.480;8.768;2023-06-22T08:24:34;30.00;57.70
38265;DHT22;24062;47.480;8.768;2023-06-22T08:27:01;30.20;57.50
38265;DHT22;24062;47.480;8.768;2023-06-22T08:29:28;30.20;57.30
38265;DHT22;24062;47.480;8.768;2023-06-22T08:31:55;30.00;57.80
38265;DHT22;24062;47.480;8.768;2023-06-22T08:34:22;30.00;57.70
38265;DHT22;24062;47.480;8.768;2023-06-22T08:36:52;30.10;57.40
38265;DHT22;24062;47.480;8.768;2023-06-22T08:39:19;30.10;57.50
38265;DHT22;24062;47.480;8.768;2023-06-22T08:41:46;30.20;57.40
38265;DHT22;24062;47.480;8.768;2023-06-22T08:44:13;30.20;57.40
38265;DHT22;24062;47.480;8.768;2023-06-22T08:46:40;30.30;57.10
38265;DHT22;24062;47.480;8.768;2023-06-22T08:49:07;30.30;57.10
38265;DHT22;24062;47.480;8.768;2023-06-22T08:51:35;30.40;57.10
38265;DHT22;24062;47.480;8.768;2023-06-22T08:54:03;30.40;57.00
38265;DHT22;24062;47.480;8.768;2023-06-22T08:56:30;30.50;57.10
38265;DHT22;24062;47.480;8.768;2023-06-22T08:58:57;30.50;57.00
38265;DHT22;24062;47.480;8.768;2023-06-22T09:01:24;30.40;57.00
38265;DHT22;24062;47.480;8.768;2023-06-22T09:03:51;30.50;57.10
38265;DHT22;24062;47.480;8.768;2023-06-22T09:06:23;30.50;57.00
38265;DHT22;24062;47.480;8.768;2023-06-22T09:08:50;30.60;57.00
38265;DHT22;24062;47.480;8.768;2023-06-22T09:11:19;30.70;57.00
38265;DHT22;24062;47.480;8.768;2023-06-22T09:13:46;30.70;57.00
38265;DHT22;24062;47.480;8.768;2023-06-22T09:16:12;30.70;57.00
38265;DHT22;24062;47.480;8.768;2023-06-22T09:18:40;30.70;57.00
38265;DHT22;24062;47.480;8.768;2023-06-22T09:21:07;30.70;57.00
38265;DHT22;24062;47.480;8.768;2023-06-22T09:23:34;30.60;57.10
38265;DHT22;24062;47.480;8.768;2023-06-22T09:26:01;30.70;57.10
38265;DHT22;24062;47.480;8.768;2023-06-22T09:28:29;30.60;57.00
38265;DHT22;24062;47.480;8.768;2023-06-22T09:30:56;30.70;57.00
38265;DHT22;24062;47.480;8.768;2023-06-22T09:33:24;30.80;56.90
38265;DHT22;24062;47.480;8.768;2023-06-22T09:35:51;30.80;56.70
38265;DHT22;24062;47.480;8.768;2023-06-22T09:38:18;30.60;56.50
38265;DHT22;24062;47.480;8.768;2023-06-22T09:40:45;30.70;56.90
38265;DHT22;24062;47.480;8.768;2023-06-22T09:43:12;30.80;56.90
38265;DHT22;24062;47.480;8.768;2023-06-22T09:45:40;30.80;56.70
38265;DHT22;24062;47.480;8.768;2023-06-22T09:48:07;30.80;57.10
38265;DHT22;24062;47.480;8.768;2023-06-22T09:50:35;30.90;56.50
38265;DHT22;24062;47.480;8.768;2023-06-22T09:53:03;31.00;56.50
38265;DHT22;24062;47.480;8.768;2023-06-22T09:55:30;31.00;56.40
38265;DHT22;24062;47.480;8.768;2023-06-22T09:57:56;31.10;56.30
38265;DHT22;24062;47.480;8.768;2023-06-22T10:00:23;31.10;56.20
38265;DHT22;24062;47.480;8.768;2023-06-22T10:02:53;31.10;56.10
38265;DHT22;24062;47.480;8.768;2023-06-22T10:05:21;31.10;55.90
38265;DHT22;24062;47.480;8.768;2023-06-22T10:07:48;31.10;55.90
38265;DHT22;24062;47.480;8.768;2023-06-22T10:10:15;31.10;55.90
38265;DHT22;24062;47.480;8.768;2023-06-22T10:12:45;31.10;56.10
38265;DHT22;24062;47.480;8.768;2023-06-22T10:15:12;31.10;55.30
38265;DHT22;24062;47.480;8.768;2023-06-22T10:17:39;31.10;55.50
38265;DHT22;24062;47.480;8.768;2023-06-22T10:20:08;31.10;55.50
38265;DHT22;24062;47.480;8.768;2023-06-22T10:22:39;31.00;55.20
38265;DHT22;24062;47.480;8.768;2023-06-22T10:25:07;31.00;55.10
38265;DHT22;24062;47.480;8.768;2023-06-22T10:27:34;31.00;54.50
38265;DHT22;24062;47.480;8.768;2023-06-22T10:30:02;31.00;54.90
38265;DHT22;24062;47.480;8.768;2023-06-22T10:32:30;31.00;54.70
38265;DHT22;24062;47.480;8.768;2023-06-22T10:34:57;31.00;54.90
38265;DHT22;24062;47.480;8.768;2023-06-22T10:37:26;30.90;55.10
38265;DHT22;24062;47.480;8.768;2023-06-22T10:39:52;30.90;54.80
38265;DHT22;24062;47.480;8.768;2023-06-22T10:42:19;30.90;55.00
38265;DHT22;24062;47.480;8.768;2023-06-22T10:44:46;30.90;54.70
38265;DHT22;24062;47.480;8.768;2023-06-22T10:47:13;30.80;54.40
38265;DHT22;24062;47.480;8.768;2023-06-22T10:49:40;30.80;54.60
38265;DHT22;24062;47.480;8.768;2023-06-22T10:52:08;30.90;54.70
38265;DHT22;24062;47.480;8.768;2023-06-22T10:54:37;30.90;54.80
38265;DHT22;24062;47.480;8.768;2023-06-22T10:57:04;30.90;54.90
38265;DHT22;24062;47.480;8.768;2023-06-22T10:59:31;30.90;55.00
38265;DHT22;24062;47.480;8.768;2023-06-22T11:01:58;31.00;54.80
38265;DHT22;24062;47.480;8.768;2023-06-22T11:04:25;31.00;54.70
38265;DHT22;24062;47.480;8.768;2023-06-22T11:06:52;31.00;54.60
38265;DHT22;24062;47.480;8.768;2023-06-22T11:09:19;31.00;54.70
38265;DHT22;24062;47.480;8.768;2023-06-22T11:11:50;31.10;54.30
38265;DHT22;24062;47.480;8.768;2023-06-22T11:14:18;31.10;54.30
38265;DHT22;24062;47.480;8.768;2023-06-22T11:16:46;31.10;54.30
38265;DHT22;24062;47.480;8.768;2023-06-22T11:19:13;31.10;54.00
38265;DHT22;24062;47.480;8.768;2023-06-22T11:21:40;31.00;54.10
38265;DHT22;24062;47.480;8.768;2023-06-22T11:24:07;31.10;54.10
38265;DHT22;24062;47.480;8.768;2023-06-22T11:26:34;31.10;54.30
38265;DHT22;24062;47.480;8.768;2023-06-22T11:29:02;31.00;54.00
38265;DHT22;24062;47.480;8.768;2023-06-22T11:31:31;31.00;54.00
38265;DHT22;24062;47.480;8.768;2023-06-22T11:33:58;31.00;54.10
38265;DHT22;24062;47.480;8.768;2023-06-22T11:36:25;31.10;54.20
38265;DHT22;24062;47.480;8.768;2023-06-22T11:38:52;31.10;54.10
38265;DHT22;24062;47.480;8.768;2023-06-22T11:41:19;31.10;54.10
38265;DHT22;24062;47.480;8.768;2023-06-22T11:43:46;31.10;54.20
38265;DHT22;24062;47.480;8.768;2023-06-22T11:46:14;31.20;54.20
38265;DHT22;24062;47.480;8.768;2023-06-22T11:48:41;31.20;54.20
38265;DHT22;24062;47.480;8.768;2023-06-22T11:51:08;31.20;54.10
38265;DHT22;24062;47.480;8.768;2023-06-22T11:53:35;31.20;54.10
38265;DHT22;24062;47.480;8.768;2023-06-22T11:56:02;31.20;54.00
38265;DHT22;24062;47.480;8.768;2023-06-22T11:58:29;31.20;53.70
38265;DHT22;24062;47.480;8.768;2023-06-22T12:00:56;31.20;53.70
38265;DHT22;24062;47.480;8.768;2023-06-22T12:03:24;31.20;53.70
38265;DHT22;24062;47.480;8.768;2023-06-22T12:05:51;31.20;53.70
38265;DHT22;24062;47.480;8.768;2023-06-22T12:08:19;31.30;53.90
38265;DHT22;24062;47.480;8.768;2023-06-22T12:10:46;31.30;53.80
38265;DHT22;24062;47.480;8.768;2023-06-22T12:13:13;31.30;53.80
38265;DHT22;24062;47.480;8.768;2023-06-22T12:15:40;31.30;53.90
38265;DHT22;24062;47.480;8.768;2023-06-22T12:18:07;31.30;54.00
38265;DHT22;24062;47.480;8.768;2023-06-22T12:20:36;31.40;54.00
38265;DHT22;24062;47.480;8.768;2023-06-22T12:23:02;31.40;53.90
38265;DHT22;24062;47.480;8.768;2023-06-22T12:25:29;31.40;54.00
38265;DHT22;24062;47.480;8.768;2023-06-22T12:27:56;31.50;54.00
38265;DHT22;24062;47.480;8.768;2023-06-22T12:30:23;31.50;54.00
38265;DHT22;24062;47.480;8.768;2023-06-22T12:32:50;31.50;54.10
38265;DHT22;24062;47.480;8.768;2023-06-22T12:35:17;31.50;54.30
38265;DHT22;24062;47.480;8.768;2023-06-22T12:37:45;31.50;54.20
38265;DHT22;24062;47.480;8.768;2023-06-22T12:40:12;31.50;54.50
38265;DHT22;24062;47.480;8.768;2023-06-22T12:42:40;31.50;54.70
38265;DHT22;24062;47.480;8.768;2023-06-22T12:45:08;31.50;54.60
38265;DHT22;24062;47.480;8.768;2023-06-22T12:47:35;31.50;54.80
38265;DHT22;24062;47.480;8.768;2023-06-22T12:50:02;31.50;54.70
38265;DHT22;24062;47.480;8.768;2023-06-22T12:52:30;31.60;54.40
38265;DHT22;24062;47.480;8.768;2023-06-22T12:54:59;31.60;54.20
38265;DHT22;24062;47.480;8.768;2023-06-22T12:57:26;31.60;54.20
38265;DHT22;24062;47.480;8.768;2023-06-22T12:59:53;31.60;54.50
38265;DHT22;24062;47.480;8.768;2023-06-22T13:02:20;31.70;54.50
38265;DHT22;24062;47.480;8.768;2023-06-22T13:04:46;31.70;54.50
38265;DHT22;24062;47.480;8.768;2023-06-22T13:07:13;31.80;54.40
38265;DHT22;24062;47.480;8.768;2023-06-22T13:09:40;31.70;54.30
38265;DHT22;24062;47.480;8.768;2023-06-22T13:12:09;31.80;54.30
38265;DHT22;24062;47.480;8.768;2023-06-22T13:14:36;31.80;54.30
38265;DHT22;24062;47.480;8.768;2023-06-22T13:17:03;31.80;54.20
38265;DHT22;24062;47.480;8.768;2023-06-22T13:19:30;31.80;54.20
38265;DHT22;24062;47.480;8.768;2023-06-22T13:21:59;31.80;54.20
38265;DHT22;24062;47.480;8.768;2023-06-22T13:24:28;31.80;54.20
38265;DHT22;24062;47.480;8.768;2023-06-22T13:26:55;31.80;54.10
38265;DHT22;24062;47.480;8.768;2023-06-22T13:29:23;31.80;53.70
38265;DHT22;24062;47.480;8.768;2023-06-22T13:31:50;31.80;53.40
38265;DHT22;24062;47.480;8.768;2023-06-22T13:34:17;31.90;53.50
38265;DHT22;24062;47.480;8.768;2023-06-22T13:36:44;32.00;53.20
38265;DHT22;24062;47.480;8.768;2023-06-22T13:39:11;32.00;53.20
38265;DHT22;24062;47.480;8.768;2023-06-22T13:41:38;32.00;53.30
38265;DHT22;24062;47.480;8.768;2023-06-22T13:44:05;31.90;52.60
38265;DHT22;24062;47.480;8.768;2023-06-22T13:46:33;31.90;53.00
38265;DHT22;24062;47.480;8.768;2023-06-22T13:49:00;31.90;52.60
38265;DHT22;24062;47.480;8.768;2023-06-22T13:51:27;31.90;52.40
38265;DHT22;24062;47.480;8.768;2023-06-22T13:53:54;31.90;52.50
38265;DHT22;24062;47.480;8.768;2023-06-22T13:56:21;31.90;52.70
38265;DHT22;24062;47.480;8.768;2023-06-22T13:58:48;31.90;52.80
38265;DHT22;24062;47.480;8.768;2023-06-22T14:01:15;31.90;52.00
38265;DHT22;24062;47.480;8.768;2023-06-22T14:03:43;31.90;52.40
38265;DHT22;24062;47.480;8.768;2023-06-22T14:06:11;31.80;51.10
38265;DHT22;24062;47.480;8.768;2023-06-22T14:08:38;31.70;51.80
38265;DHT22;24062;47.480;8.768;2023-06-22T14:11:05;31.50;50.70
38265;DHT22;24062;47.480;8.768;2023-06-22T14:13:31;31.30;50.80
38265;DHT22;24062;47.480;8.768;2023-06-22T14:15:58;31.20;50.60
38265;DHT22;24062;47.480;8.768;2023-06-22T14:18:25;31.30;51.50
38265;DHT22;24062;47.480;8.768;2023-06-22T14:20:54;31.30;51.20
38265;DHT22;24062;47.480;8.768;2023-06-22T14:23:21;31.30;51.50
38265;DHT22;24062;47.480;8.768;2023-06-22T14:25:48;31.30;51.60
38265;DHT22;24062;47.480;8.768;2023-06-22T14:28:15;31.20;51.10
38265;DHT22;24062;47.480;8.768;2023-06-22T14:30:43;31.20;51.00
38265;DHT22;24062;47.480;8.768;2023-06-22T14:33:12;31.10;50.90
38265;DHT22;24062;47.480;8.768;2023-06-22T14:35:39;31.10;51.20
38265;DHT22;24062;47.480;8.768;2023-06-22T14:38:07;31.10;51.20
38265;DHT22;24062;47.480;8.768;2023-06-22T14:40:34;31.00;51.20
38265;DHT22;24062;47.480;8.768;2023-06-22T14:43:01;31.00;50.80
38265;DHT22;24062;47.480;8.768;2023-06-22T14:45:28;31.00;51.30
38265;DHT22;24062;47.480;8.768;2023-06-22T14:47:54;31.00;51.80
38265;DHT22;24062;47.480;8.768;2023-06-22T14:50:21;31.10;52.10
38265;DHT22;24062;47.480;8.768;2023-06-22T14:52:48;31.10;51.90
38265;DHT22;24062;47.480;8.768;2023-06-22T14:55:17;31.10;52.00
38265;DHT22;24062;47.480;8.768;2023-06-22T14:57:44;31.10;52.90
38265;DHT22;24062;47.480;8.768;2023-06-22T15:00:11;31.10;52.10
38265;DHT22;24062;47.480;8.768;2023-06-22T15:02:38;31.00;52.20
38265;DHT22;24062;47.480;8.768;2023-06-22T15:05:06;31.00;52.50
38265;DHT22;24062;47.480;8.768;2023-06-22T15:07:33;31.00;52.50
38265;DHT22;24062;47.480;8.768;2023-06-22T15:09:59;31.00;52.60
38265;DHT22;24062;47.480;8.768;2023-06-22T15:12:28;31.00;52.80
38265;DHT22;24062;47.480;8.768;2023-06-22T15:14:55;31.10;53.10
38265;DHT22;24062;47.480;8.768;2023-06-22T15:17:22;31.20;53.30
38265;DHT22;24062;47.480;8.768;2023-06-22T15:19:49;31.20;53.20
38265;DHT22;24062;47.480;8.768;2023-06-22T15:22:16;31.30;53.30
38265;DHT22;24062;47.480;8.768;2023-06-22T15:24:45;31.40;53.40
38265;DHT22;24062;47.480;8.768;2023-06-22T15:27:13;31.50;53.30
38265;DHT22;24062;47.480;8.768;2023-06-22T15:29:42;31.50;53.20
38265;DHT22;24062;47.480;8.768;2023-06-22T15:32:09;31.40;53.10